Time;durP1;ratioP1;P1;durP2;ratioP2;P2;SDS_P1;SDS_P2;PMS_P1;PMS_P2;Temp;Humidity;BMP_temperature;BMP_pressure;BME280_temperature;BME280_humidity;BME280_pressure;Samples;Min_cycle;Max_cycle;Signal;HPM_P1;HPM_P2
2022/03/28 00:00:38;;;;;;;15.40;3.50;;;;;;;;;;5050966;28;20236;-17
2022/03/28 00:03:06;;;;;;;16.35;4.10;;;;;;;;;;5051204;28;20709;-17
2022/03/28 00:05:33;;;;;;;9.32;3.50;;;;;;;;;;5050327;28;20313;-17
2022/03/28 00:08:01;;;;;;;11.63;3.33;;;;;;;;;;5051099;28;20229;-17
2022/03/28 00:10:28;;;;;;;8.60;3.70;;;;;;;;;;5045924;28;20222;-17
2022/03/28 00:12:55;;;;;;;11.70;3.40;;;;;;;;;;5050906;28;20701;-18
2022/03/28 00:15:23;;;;;;;7.88;2.95;;;;;;;;;;5050807;28;20675;-17
2022/03/28 00:17:51;;;;;;;16.88;3.75;;;;;;;;;;5053471;28;20240;-18
2022/03/28 00:20:18;;;;;;;10.48;3.10;;;;;;;;;;5053115;28;20233;-17
2022/03/28 00:22:46;;;;;;;12.77;3.28;;;;;;;;;;5054070;28;20246;-17
2022/03/28 00:25:13;;;;;;;13.93;3.78;;;;;;;;;;5050528;28;20285;-18
2022/03/28 00:27:41;;;;;;;9.95;3.15;;;;;;;;;;5054281;28;20236;-17
2022/03/28 00:30:08;;;;;;;11.40;3.25;;;;;;;;;;5054252;28;20225;-17
2022/03/28 00:32:36;;;;;;;8.45;2.83;;;;;;;;;;5049837;28;20607;-17
2022/03/28 00:35:05;;;;;;;11.98;3.10;;;;;;;;;;5053977;28;20225;-17
2022/03/28 00:37:32;;;;;;;14.55;3.33;;;;;;;;;;5054322;28;20229;-18
2022/03/28 00:40:00;;;;;;;12.88;3.13;;;;;;;;;;5054043;28;20230;-17
2022/03/28 00:42:27;;;;;;;12.02;3.60;;;;;;;;;;5049094;28;20231;-17
2022/03/28 00:44:54;;;;;;;10.85;2.65;;;;;;;;;;5053194;28;20241;-17
2022/03/28 00:47:22;;;;;;;8.40;2.85;;;;;;;;;;5053768;28;20626;-17
2022/03/28 00:49:49;;;;;;;10.52;3.40;;;;;;;;;;5054139;28;20226;-18
2022/03/28 00:52:18;;;;;;;10.55;3.03;;;;;;;;;;5053466;28;20705;-18
2022/03/28 00:54:45;;;;;;;9.13;3.35;;;;;;;;;;5053814;28;20238;-17
2022/03/28 00:57:12;;;;;;;11.38;2.75;;;;;;;;;;5054954;28;20226;-17
2022/03/28 00:59:39;;;;;;;8.45;2.90;;;;;;;;;;5054151;28;20237;-17
2022/03/28 01:02:07;;;;;;;12.07;3.00;;;;;;;;;;5053505;28;20230;-17
2022/03/28 01:04:34;;;;;;;10.63;3.15;;;;;;;;;;5052882;28;20240;-17
2022/03/28 01:07:02;;;;;;;10.60;2.90;;;;;;;;;;5053322;28;20230;-17
2022/03/28 01:09:30;;;;;;;9.45;2.95;;;;;;;;;;5053036;28;20230;-17
2022/03/28 01:11:58;;;;;;;10.30;3.17;;;;;;;;;;5053348;28;20233;-17
2022/03/28 01:14:25;;;;;;;9.23;3.40;;;;;;;;;;5052563;28;20238;-17
2022/03/28 01:19:37;;;;;;;10.98;3.35;;;;;;;;;;5052811;28;20756;-17
2022/03/28 01:22:06;;;;;;;7.80;3.10;;;;;;;;;;5052854;28;20242;-17
2022/03/28 01:24:33;;;;;;;8.63;2.53;;;;;;;;;;5052259;28;20234;-17
2022/03/28 01:27:01;;;;;;;7.45;2.88;;;;;;;;;;5047163;28;20230;-17
2022/03/28 01:29:28;;;;;;;7.60;2.88;;;;;;;;;;5051429;28;20231;-17
2022/03/28 01:31:56;;;;;;;7.20;2.75;;;;;;;;;;5052557;28;20238;-17
2022/03/28 01:34:23;;;;;;;8.95;3.53;;;;;;;;;;5052436;28;20325;-17
2022/03/28 01:36:50;;;;;;;9.18;3.00;;;;;;;;;;5053027;28;20230;-17
2022/03/28 01:39:19;;;;;;;10.52;3.15;;;;;;;;;;5053032;28;20702;-17
2022/03/28 01:41:47;;;;;;;8.40;3.28;;;;;;;;;;5052720;28;20238;-17
2022/03/28 01:44:14;;;;;;;7.47;3.00;;;;;;;;;;5052788;28;20238;-17
2022/03/28 01:46:44;;;;;;;11.02;3.20;;;;;;;;;;5052932;28;20234;-17
2022/03/28 01:49:11;;;;;;;8.38;2.90;;;;;;;;;;5051975;28;20226;-17
2022/03/28 01:51:39;;;;;;;7.63;2.97;;;;;;;;;;5052930;28;20238;-17
2022/03/28 01:54:07;;;;;;;5.70;2.60;;;;;;;;;;5052413;28;20230;-17
2022/03/28 01:56:35;;;;;;;8.85;2.50;;;;;;;;;;5052704;28;20234;-17
2022/03/28 01:59:02;;;;;;;8.75;3.10;;;;;;;;;;5052130;28;20245;-17
2022/03/28 02:01:30;;;;;;;7.03;2.40;;;;;;;;;;5052754;28;21033;-17
2022/03/28 02:03:57;;;;;;;10.60;2.50;;;;;;;;;;5052564;28;20222;-17
2022/03/28 02:06:25;;;;;;;9.40;2.55;;;;;;;;;;5052758;28;20723;-17
2022/03/28 02:08:52;;;;;;;13.48;3.15;;;;;;;;;;5052508;28;20222;-17
2022/03/28 02:11:20;;;;;;;10.93;3.28;;;;;;;;;;5052714;28;20231;-17
2022/03/28 02:13:48;;;;;;;10.30;3.25;;;;;;;;;;5052710;28;20971;-17
2022/03/28 02:16:16;;;;;;;9.43;2.70;;;;;;;;;;5047475;28;20234;-17
2022/03/28 02:18:43;;;;;;;9.57;2.53;;;;;;;;;;5048495;28;20240;-17
2022/03/28 02:21:10;;;;;;;7.80;2.47;;;;;;;;;;5052246;28;21609;-18
2022/03/28 02:23:38;;;;;;;9.63;2.97;;;;;;;;;;5052059;28;20234;-17
2022/03/28 02:26:05;;;;;;;7.80;2.55;;;;;;;;;;5051815;28;20300;-17
2022/03/28 02:28:33;;;;;;;7.28;2.67;;;;;;;;;;5051389;28;20222;-17
2022/03/28 02:31:02;;;;;;;7.07;2.65;;;;;;;;;;5051972;28;20238;-17
2022/03/28 02:33:29;;;;;;;8.55;2.95;;;;;;;;;;5049765;28;20237;-17
2022/03/28 02:35:57;;;;;;;7.70;2.60;;;;;;;;;;5049903;28;20249;-17
2022/03/28 02:38:24;;;;;;;7.90;3.00;;;;;;;;;;5049114;28;21012;-17
2022/03/28 02:40:51;;;;;;;7.22;2.70;;;;;;;;;;5049296;28;20713;-17
2022/03/28 02:43:22;;;;;;;9.73;3.05;;;;;;;;;;5049905;28;21020;-17
2022/03/28 02:45:49;;;;;;;10.75;2.85;;;;;;;;;;5049756;28;20234;-17
2022/03/28 02:48:18;;;;;;;7.05;2.75;;;;;;;;;;5050524;28;20230;-17
2022/03/28 02:50:46;;;;;;;7.95;2.75;;;;;;;;;;5051677;28;20237;-17
2022/03/28 02:53:13;;;;;;;6.10;2.65;;;;;;;;;;5048035;28;20241;-17
2022/03/28 02:55:40;;;;;;;7.03;2.58;;;;;;;;;;5052014;28;20234;-17
2022/03/28 02:58:07;;;;;;;5.18;2.30;;;;;;;;;;5051491;28;20241;-17
2022/03/28 03:00:35;;;;;;;8.75;3.03;;;;;;;;;;5049813;28;20670;-17
2022/03/28 03:03:02;;;;;;;7.88;2.30;;;;;;;;;;5051759;28;20300;-17
2022/03/28 03:05:31;;;;;;;8.95;2.75;;;;;;;;;;5051521;28;20760;-17
2022/03/28 03:07:58;;;;;;;6.50;2.88;;;;;;;;;;5051885;28;20238;-17
2022/03/28 03:10:26;;;;;;;4.95;2.28;;;;;;;;;;5050991;28;20266;-17
2022/03/28 03:12:53;;;;;;;8.48;2.58;;;;;;;;;;5050941;28;20610;-17
2022/03/28 03:15:21;;;;;;;5.15;2.25;;;;;;;;;;5051447;28;20233;-17
2022/03/28 03:17:48;;;;;;;5.60;2.30;;;;;;;;;;5051355;28;20757;-17
2022/03/28 03:20:16;;;;;;;5.50;2.33;;;;;;;;;;5051001;28;20650;-18
2022/03/28 03:22:44;;;;;;;8.15;3.13;;;;;;;;;;5051013;28;20262;-17
2022/03/28 03:25:12;;;;;;;8.88;2.88;;;;;;;;;;5047320;28;20756;-17
2022/03/28 03:27:39;;;;;;;8.30;2.40;;;;;;;;;;5051636;28;20240;-17
2022/03/28 03:30:07;;;;;;;5.82;2.38;;;;;;;;;;5051320;28;20267;-17
2022/03/28 03:32:35;;;;;;;6.43;2.17;;;;;;;;;;5049784;28;20740;-17
2022/03/28 03:35:03;;;;;;;6.50;2.17;;;;;;;;;;5051046;28;21111;-17
2022/03/28 03:37:30;;;;;;;7.53;2.58;;;;;;;;;;5050790;28;20810;-17
2022/03/28 03:39:59;;;;;;;5.38;1.88;;;;;;;;;;5051276;28;20283;-17
2022/03/28 03:42:26;;;;;;;6.63;2.60;;;;;;;;;;5050671;28;20229;-17
2022/03/28 03:44:53;;;;;;;6.75;2.55;;;;;;;;;;5051042;28;20602;-17
2022/03/28 03:47:21;;;;;;;7.55;2.30;;;;;;;;;;5051010;28;20272;-17
2022/03/28 03:49:49;;;;;;;8.27;2.63;;;;;;;;;;5051274;28;20220;-17
2022/03/28 03:52:16;;;;;;;12.02;2.30;;;;;;;;;;5050579;28;20252;-17
2022/03/28 03:54:43;;;;;;;6.43;2.63;;;;;;;;;;5050931;28;20226;-17
2022/03/28 03:57:12;;;;;;;6.28;2.20;;;;;;;;;;5051013;28;20728;-17
2022/03/28 03:59:39;;;;;;;9.13;1.95;;;;;;;;;;5050905;28;20225;-17
2022/03/28 04:02:06;;;;;;;7.18;2.22;;;;;;;;;;5050195;28;20222;-17
2022/03/28 04:04:34;;;;;;;6.25;2.22;;;;;;;;;;5051452;28;20240;-17
2022/03/28 04:07:01;;;;;;;6.45;2.40;;;;;;;;;;5050888;28;20716;-17
2022/03/28 04:09:29;;;;;;;5.10;2.40;;;;;;;;;;5050813;28;20231;-17
2022/03/28 04:11:57;;;;;;;6.15;2.30;;;;;;;;;;5051187;28;20295;-17
2022/03/28 04:14:25;;;;;;;5.68;2.20;;;;;;;;;;5051014;28;20237;-17
2022/03/28 04:16:53;;;;;;;8.27;2.50;;;;;;;;;;5050063;28;20697;-17
2022/03/28 04:19:20;;;;;;;5.38;2.50;;;;;;;;;;5050706;28;20230;-17
2022/03/28 04:21:48;;;;;;;4.93;2.20;;;;;;;;;;5050321;28;20613;-17
2022/03/28 04:24:15;;;;;;;5.10;2.30;;;;;;;;;;5050841;28;20705;-17
2022/03/28 04:26:43;;;;;;;5.13;2.50;;;;;;;;;;5045971;28;20236;-17
2022/03/28 04:29:10;;;;;;;8.82;2.45;;;;;;;;;;5050812;28;20982;-17
2022/03/28 04:31:40;;;;;;;4.55;2.05;;;;;;;;;;5050608;28;20230;-17
2022/03/28 04:34:08;;;;;;;5.97;2.58;;;;;;;;;;5050804;28;20293;-17
2022/03/28 04:36:35;;;;;;;4.25;1.98;;;;;;;;;;5050916;28;21125;-17
2022/03/28 04:39:02;;;;;;;4.88;1.90;;;;;;;;;;5045762;28;20238;-17
2022/03/28 04:41:30;;;;;;;4.68;2.00;;;;;;;;;;5050358;28;20227;-17
2022/03/28 04:43:57;;;;;;;3.83;2.28;;;;;;;;;;5050586;28;20238;-17
2022/03/28 04:46:24;;;;;;;4.45;1.98;;;;;;;;;;5050136;28;20230;-17
2022/03/28 04:48:53;;;;;;;4.57;2.60;;;;;;;;;;5050303;28;20689;-17
2022/03/28 04:51:21;;;;;;;3.30;1.90;;;;;;;;;;5060920;28;20233;-17
2022/03/28 04:53:49;;;;;;;5.53;2.20;;;;;;;;;;5066544;28;20257;-17
2022/03/28 04:56:16;;;;;;;3.75;2.10;;;;;;;;;;5065845;28;20229;-17
2022/03/28 04:58:43;;;;;;;2.97;1.77;;;;;;;;;;5052525;28;20231;-17
2022/03/28 05:01:11;;;;;;;9.68;2.30;;;;;;;;;;5050978;28;20222;-17
2022/03/28 05:03:38;;;;;;;5.00;2.47;;;;;;;;;;5061198;28;20288;-17
2022/03/28 05:06:08;;;;;;;6.20;2.55;;;;;;;;;;5055134;28;20230;-17
2022/03/28 05:08:35;;;;;;;8.13;2.10;;;;;;;;;;5055500;28;20234;-17
2022/03/28 05:11:03;;;;;;;4.07;2.35;;;;;;;;;;5059387;28;20284;-17
2022/03/28 05:13:30;;;;;;;3.30;1.95;;;;;;;;;;5066352;28;20700;-17
2022/03/28 05:15:58;;;;;;;7.45;2.00;;;;;;;;;;5060620;28;20229;-17
2022/03/28 05:18:25;;;;;;;3.00;1.70;;;;;;;;;;5061085;28;20238;-17
2022/03/28 05:20:52;;;;;;;3.55;1.70;;;;;;;;;;5062486;28;20236;-18
2022/03/28 05:23:21;;;;;;;3.00;1.95;;;;;;;;;;5065735;28;20328;-17
2022/03/28 05:25:48;;;;;;;5.47;2.17;;;;;;;;;;5065382;28;20719;-17
2022/03/28 05:28:16;;;;;;;3.65;2.42;;;;;;;;;;5066272;28;20221;-17
2022/03/28 05:30:43;;;;;;;2.95;2.10;;;;;;;;;;5063538;28;20238;-17
2022/03/28 05:33:10;;;;;;;4.53;2.53;;;;;;;;;;5052604;28;20234;-17
2022/03/28 05:35:38;;;;;;;3.58;2.10;;;;;;;;;;5057137;28;20253;-17
2022/03/28 05:38:05;;;;;;;2.95;1.90;;;;;;;;;;5053512;28;20246;-17
2022/03/28 05:40:34;;;;;;;5.00;2.60;;;;;;;;;;5052472;28;20230;-17
2022/03/28 05:43:02;;;;;;;4.95;2.45;;;;;;;;;;5053839;28;20238;-17
2022/03/28 05:45:29;;;;;;;3.90;2.58;;;;;;;;;;5053432;28;20233;-17
2022/03/28 05:47:57;;;;;;;5.15;2.35;;;;;;;;;;5052184;28;20230;-17
2022/03/28 05:50:24;;;;;;;3.85;2.20;;;;;;;;;;5052774;28;20230;-17
2022/03/28 05:52:51;;;;;;;5.85;2.45;;;;;;;;;;5052590;28;20241;-17
2022/03/28 05:55:19;;;;;;;10.00;2.90;;;;;;;;;;5051945;28;21239;-17
2022/03/28 05:57:47;;;;;;;7.13;2.28;;;;;;;;;;5052549;28;20253;-17
2022/03/28 06:00:15;;;;;;;6.85;2.47;;;;;;;;;;5052769;28;20264;-17
2022/03/28 06:02:43;;;;;;;9.25;2.53;;;;;;;;;;5049252;28;20230;-17
2022/03/28 06:05:10;;;;;;;5.50;2.38;;;;;;;;;;5060283;28;20240;-17
2022/03/28 06:07:38;;;;;;;6.68;2.28;;;;;;;;;;5053247;28;20226;-17
2022/03/28 06:10:05;;;;;;;7.53;2.60;;;;;;;;;;5052645;28;20238;-17
2022/03/28 06:12:32;;;;;;;6.00;2.00;;;;;;;;;;5052379;28;20234;-17
2022/03/28 06:15:02;;;;;;;2.97;2.00;;;;;;;;;;5052752;28;20705;-17
2022/03/28 06:17:29;;;;;;;4.97;2.55;;;;;;;;;;5059042;28;20241;-17
2022/03/28 06:19:57;;;;;;;4.88;2.00;;;;;;;;;;5059551;28;20230;-17
2022/03/28 06:22:24;;;;;;;3.05;2.38;;;;;;;;;;5052013;28;20301;-17
2022/03/28 06:24:51;;;;;;;3.00;2.03;;;;;;;;;;5052461;28;20632;-17
2022/03/28 06:27:23;;;;;;;5.20;2.25;;;;;;;;;;5051465;28;20760;-17
2022/03/28 06:29:51;;;;;;;2.80;1.83;;;;;;;;;;5057373;28;20665;-17
2022/03/28 06:32:19;;;;;;;3.05;2.35;;;;;;;;;;5060636;28;20225;-17
2022/03/28 06:34:48;;;;;;;3.72;2.13;;;;;;;;;;5066632;28;20225;-17
2022/03/28 06:37:16;;;;;;;5.55;2.47;;;;;;;;;;5062046;28;20242;-17
2022/03/28 06:39:43;;;;;;;9.98;2.53;;;;;;;;;;5059099;28;20237;-17
2022/03/28 06:42:10;;;;;;;5.75;2.70;;;;;;;;;;5060910;28;20978;-17
2022/03/28 06:44:38;;;;;;;7.18;2.85;;;;;;;;;;5062599;28;20240;-17
2022/03/28 06:47:05;;;;;;;8.25;2.88;;;;;;;;;;5058178;28;20240;-17
2022/03/28 06:49:34;;;;;;;4.05;2.80;;;;;;;;;;5058244;28;20270;-17
2022/03/28 06:52:01;;;;;;;5.22;2.40;;;;;;;;;;5059804;28;20356;-17
2022/03/28 06:54:29;;;;;;;5.93;2.50;;;;;;;;;;5063792;28;20229;-17
2022/03/28 06:56:56;;;;;;;5.25;2.42;;;;;;;;;;5063130;28;20236;-17
2022/03/28 06:59:24;;;;;;;4.53;2.58;;;;;;;;;;5056917;28;20977;-17
2022/03/28 07:01:51;;;;;;;17.48;2.85;;;;;;;;;;5057189;28;20233;-17
2022/03/28 07:04:20;;;;;;;8.10;2.58;;;;;;;;;;5059025;28;20277;-17
2022/03/28 07:06:49;;;;;;;7.13;3.20;;;;;;;;;;5054572;28;20461;-17
2022/03/28 07:09:16;;;;;;;10.73;2.42;;;;;;;;;;5050027;28;20698;-17
2022/03/28 07:11:43;;;;;;;9.88;2.30;;;;;;;;;;5050983;28;20238;-17
2022/03/28 07:14:11;;;;;;;6.85;2.40;;;;;;;;;;5051570;28;20226;-17
2022/03/28 07:16:38;;;;;;;6.50;2.58;;;;;;;;;;5051469;28;20234;-17
2022/03/28 07:19:06;;;;;;;9.68;2.60;;;;;;;;;;5050805;28;21004;-17
2022/03/28 07:21:33;;;;;;;6.22;2.33;;;;;;;;;;5051082;28;20249;-17
2022/03/28 07:24:02;;;;;;;4.35;3.03;;;;;;;;;;5051102;28;20242;-17
2022/03/28 07:26:29;;;;;;;4.05;2.20;;;;;;;;;;5053950;28;20233;-17
2022/03/28 07:29:00;;;;;;;6.10;2.53;;;;;;;;;;5050197;28;20313;-17
2022/03/28 07:31:27;;;;;;;8.98;2.40;;;;;;;;;;5061409;28;20233;-17
2022/03/28 07:34:29;;;;;;;7.38;2.20;;;;;;;;;;5060561;28;20233;-17
2022/03/28 07:36:43;;;;;;;6.15;3.20;;;;;;;;;;5060894;28;20417;-17
2022/03/28 07:39:11;;;;;;;9.15;3.40;;;;;;;;;;5059055;28;20238;-17
2022/03/28 07:41:39;;;;;;;14.20;3.20;;;;;;;;;;5059031;28;20234;-17
2022/03/28 07:44:06;;;;;;;6.85;2.67;;;;;;;;;;5062999;28;20230;-17
2022/03/28 07:46:34;;;;;;;8.27;2.33;;;;;;;;;;5058336;28;20799;-19
2022/03/28 07:49:02;;;;;;;10.88;2.53;;;;;;;;;;5059865;28;20240;-17
2022/03/28 07:51:29;;;;;;;8.93;2.65;;;;;;;;;;5062081;28;20230;-17
2022/03/28 07:53:57;;;;;;;9.52;2.25;;;;;;;;;;5060432;28;20229;-17
2022/03/28 07:56:25;;;;;;;8.82;2.40;;;;;;;;;;5057493;28;20230;-17
2022/03/28 07:58:53;;;;;;;3.53;2.03;;;;;;;;;;5057537;28;20241;-17
2022/03/28 08:01:20;;;;;;;5.45;2.22;;;;;;;;;;5062599;28;20245;-17
2022/03/28 08:03:48;;;;;;;8.85;2.10;;;;;;;;;;5060846;28;20237;-17
2022/03/28 08:06:16;;;;;;;4.57;2.00;;;;;;;;;;5062177;28;20230;-17
2022/03/28 08:08:43;;;;;;;3.33;1.73;;;;;;;;;;5055855;28;20704;-17
2022/03/28 08:11:11;;;;;;;4.80;1.95;;;;;;;;;;5063210;28;20241;-17
2022/03/28 08:13:40;;;;;;;6.05;2.00;;;;;;;;;;5057654;28;20256;-17
2022/03/28 08:16:08;;;;;;;2.33;1.67;;;;;;;;;;5060056;28;20238;-17
2022/03/28 08:18:38;;;;;;;5.80;2.17;;;;;;;;;;5056971;28;20241;-17
2022/03/28 08:21:05;;;;;;;4.57;1.83;;;;;;;;;;5051784;28;20735;-17
2022/03/28 08:23:33;;;;;;;5.18;2.67;;;;;;;;;;5050812;28;20244;-17
2022/03/28 08:26:00;;;;;;;2.53;1.90;;;;;;;;;;5050614;28;20236;-17
2022/03/28 08:28:32;;;;;;;4.43;2.10;;;;;;;;;;5050010;28;20277;-17
2022/03/28 08:31:01;;;;;;;2.90;1.88;;;;;;;;;;5050645;28;20241;-17
2022/03/28 08:33:28;;;;;;;4.25;1.77;;;;;;;;;;5050076;28;20222;-17
2022/03/28 08:35:55;;;;;;;3.53;2.05;;;;;;;;;;5050736;28;20226;-17
2022/03/28 08:38:23;;;;;;;9.65;1.98;;;;;;;;;;5052462;28;20245;-17
2022/03/28 08:40:50;;;;;;;3.83;2.13;;;;;;;;;;5058868;28;20231;-17
2022/03/28 08:43:18;;;;;;;4.70;1.80;;;;;;;;;;5054043;28;21125;-17
2022/03/28 08:45:45;;;;;;;4.45;1.80;;;;;;;;;;5053529;28;20461;-17
2022/03/28 08:48:14;;;;;;;5.50;2.33;;;;;;;;;;5050018;28;20230;-17
2022/03/28 08:50:42;;;;;;;7.03;1.60;;;;;;;;;;5049177;28;20229;-17
2022/03/28 08:53:09;;;;;;;2.28;1.67;;;;;;;;;;5053956;28;20214;-17
2022/03/28 08:55:38;;;;;;;2.00;1.80;;;;;;;;;;5052186;28;20962;-17
2022/03/28 08:58:06;;;;;;;4.50;2.13;;;;;;;;;;5048508;28;20234;-17
2022/03/28 09:00:33;;;;;;;3.42;1.45;;;;;;;;;;5051780;28;20245;-17
2022/03/28 09:03:01;;;;;;;3.20;1.73;;;;;;;;;;5047574;28;20269;-17
2022/03/28 09:05:31;;;;;;;3.70;1.45;;;;;;;;;;5055731;28;20230;-17
2022/03/28 09:07:58;;;;;;;6.13;1.70;;;;;;;;;;5062245;28;20225;-17
2022/03/28 09:10:27;;;;;;;2.75;1.80;;;;;;;;;;5056886;28;21090;-17
2022/03/28 09:12:58;;;;;;;5.85;1.58;;;;;;;;;;5053042;28;20280;-17
2022/03/28 09:15:26;;;;;;;2.88;1.63;;;;;;;;;;5053220;28;20230;-17
2022/03/28 09:17:56;;;;;;;4.93;1.63;;;;;;;;;;5053542;28;20241;-17
2022/03/28 09:20:24;;;;;;;1.67;1.27;;;;;;;;;;5054415;28;20237;-17
2022/03/28 09:22:53;;;;;;;4.22;1.67;;;;;;;;;;5051849;28;20245;-17
2022/03/28 09:25:23;;;;;;;4.97;1.58;;;;;;;;;;5053399;28;20230;-17
2022/03/28 09:27:50;;;;;;;12.02;2.55;;;;;;;;;;5052991;28;20226;-17
2022/03/28 09:30:18;;;;;;;2.30;1.48;;;;;;;;;;5053513;28;20230;-17
2022/03/28 09:32:46;;;;;;;3.38;1.65;;;;;;;;;;5053247;28;20803;-17
2022/03/28 09:35:19;;;;;;;5.35;1.85;;;;;;;;;;5050517;28;20232;-17
2022/03/28 09:37:47;;;;;;;4.80;1.55;;;;;;;;;;5049695;28;20260;-17
2022/03/28 09:40:23;;;;;;;2.40;1.58;;;;;;;;;;5053191;28;20241;-17
2022/03/28 09:42:50;;;;;;;1.88;1.33;;;;;;;;;;5050422;28;20237;-17
2022/03/28 09:45:21;;;;;;;5.07;1.80;;;;;;;;;;5052560;28;20234;-19
2022/03/28 09:47:55;;;;;;;1.90;1.38;;;;;;;;;;5052936;28;20953;-17
2022/03/28 09:50:27;;;;;;;1.60;1.40;;;;;;;;;;5052903;28;20700;-17
2022/03/28 09:53:12;;;;;;;1.90;1.30;;;;;;;;;;5052804;28;20236;-17
2022/03/28 09:55:47;;;;;;;2.53;1.70;;;;;;;;;;5052549;28;20233;-18
2022/03/28 09:58:37;;;;;;;1.98;1.48;;;;;;;;;;5050216;28;20237;-18
2022/03/28 10:01:05;;;;;;;3.55;1.60;;;;;;;;;;5052973;28;20234;-17
2022/03/28 10:03:33;;;;;;;2.90;2.00;;;;;;;;;;5053724;28;20223;-17
2022/03/28 10:06:01;;;;;;;2.47;1.75;;;;;;;;;;5053514;28;20241;-17
2022/03/28 10:08:29;;;;;;;2.50;2.30;;;;;;;;;;5052639;28;20603;-17
2022/03/28 10:10:58;;;;;;;3.35;2.40;;;;;;;;;;5056317;28;20236;-17
2022/03/28 10:13:25;;;;;;;2.97;2.42;;;;;;;;;;5051655;28;20230;-17
2022/03/28 10:15:53;;;;;;;5.45;3.10;;;;;;;;;;5052299;28;20945;-17
2022/03/28 10:18:20;;;;;;;4.53;2.88;;;;;;;;;;5058070;28;20245;-17
2022/03/28 10:20:53;;;;;;;7.35;3.75;;;;;;;;;;5063734;28;20237;-18
2022/03/28 10:23:20;;;;;;;4.00;3.10;;;;;;;;;;5061916;28;20252;-17
2022/03/28 10:25:47;;;;;;;5.10;3.03;;;;;;;;;;5064223;28;20261;-17
2022/03/28 10:28:20;;;;;;;3.88;2.67;;;;;;;;;;5063070;28;20417;-17
2022/03/28 10:30:47;;;;;;;6.63;2.90;;;;;;;;;;5061118;28;20240;-17
2022/03/28 10:33:16;;;;;;;4.85;2.80;;;;;;;;;;5065976;28;21105;-17
2022/03/28 10:35:56;;;;;;;6.57;2.50;;;;;;;;;;5061595;28;20230;-17
2022/03/28 10:38:23;;;;;;;4.15;2.63;;;;;;;;;;5056911;28;20237;-17
2022/03/28 10:40:55;;;;;;;4.28;2.45;;;;;;;;;;5062828;28;20798;-17
2022/03/28 10:43:25;;;;;;;5.35;2.45;;;;;;;;;;5066854;28;20803;-17
2022/03/28 10:45:53;;;;;;;9.68;3.88;;;;;;;;;;5052547;28;20414;-17
2022/03/28 10:48:33;;;;;;;9.13;3.53;;;;;;;;;;5056014;28;20819;-17
2022/03/28 10:51:03;;;;;;;8.45;2.75;;;;;;;;;;5049577;28;20257;-17
2022/03/28 10:53:33;;;;;;;5.10;3.15;;;;;;;;;;5055814;28;20237;-17
2022/03/28 10:56:01;;;;;;;2.90;2.60;;;;;;;;;;5052859;28;20233;-17
2022/03/28 10:58:30;;;;;;;3.60;2.40;;;;;;;;;;5051643;28;20234;-17
2022/03/28 11:01:16;;;;;;;5.05;2.80;;;;;;;;;;5050923;28;20245;-17
2022/03/28 11:03:44;;;;;;;5.10;2.45;;;;;;;;;;5047336;28;20226;-17
2022/03/28 11:06:11;;;;;;;4.97;2.70;;;;;;;;;;5053951;28;20244;-17
2022/03/28 11:08:41;;;;;;;7.03;2.70;;;;;;;;;;5062396;28;20225;-17
2022/03/28 11:11:14;;;;;;;6.13;2.60;;;;;;;;;;5056769;28;20222;-17
2022/03/28 11:13:43;;;;;;;7.75;2.67;;;;;;;;;;5047054;28;20240;-17
2022/03/28 11:16:18;;;;;;;5.97;3.08;;;;;;;;;;5052087;28;20226;-17
2022/03/28 11:18:45;;;;;;;6.65;3.08;;;;;;;;;;5049116;28;20240;-17
2022/03/28 11:21:12;;;;;;;4.20;2.85;;;;;;;;;;5051718;28;20242;-17
2022/03/28 11:23:42;;;;;;;6.85;3.63;;;;;;;;;;5048209;28;21071;-17
2022/03/28 11:26:10;;;;;;;4.40;2.80;;;;;;;;;;5051992;28;20234;-17
2022/03/28 11:28:38;;;;;;;6.10;2.70;;;;;;;;;;5051486;28;20731;-17
2022/03/28 11:31:08;;;;;;;4.00;2.70;;;;;;;;;;5051354;28;20222;-17
2022/03/28 11:33:37;;;;;;;3.63;2.55;;;;;;;;;;5051653;28;20248;-17
2022/03/28 11:36:05;;;;;;;4.30;2.40;;;;;;;;;;5050812;28;20230;-17
2022/03/28 11:38:33;;;;;;;5.80;2.65;;;;;;;;;;5050853;28;20234;-17
2022/03/28 11:41:01;;;;;;;4.18;2.60;;;;;;;;;;5051151;28;20242;-17
2022/03/28 11:43:32;;;;;;;5.65;3.22;;;;;;;;;;5051157;28;20226;-17
2022/03/28 11:46:00;;;;;;;3.28;2.80;;;;;;;;;;5050453;28;20234;-17
2022/03/28 11:48:29;;;;;;;3.83;3.15;;;;;;;;;;5051422;28;20218;-17
2022/03/28 11:50:57;;;;;;;7.20;3.22;;;;;;;;;;5051359;28;21641;-17
2022/03/28 11:53:24;;;;;;;4.85;3.30;;;;;;;;;;5051144;28;20257;-17
2022/03/28 11:55:52;;;;;;;5.43;3.05;;;;;;;;;;5050954;28;20222;-17
2022/03/28 11:58:29;;;;;;;5.57;2.50;;;;;;;;;;5050445;28;20783;-17
2022/03/28 12:01:02;;;;;;;3.75;3.00;;;;;;;;;;5050975;28;20712;-17
2022/03/28 12:03:31;;;;;;;3.35;2.50;;;;;;;;;;5051032;28;20226;-17
2022/03/28 12:06:00;;;;;;;6.60;2.85;;;;;;;;;;5050899;28;20234;-17
2022/03/28 12:08:28;;;;;;;3.65;2.67;;;;;;;;;;5050141;28;20234;-17
2022/03/28 12:10:56;;;;;;;4.40;3.00;;;;;;;;;;5051606;28;20222;-17
2022/03/28 12:13:24;;;;;;;16.55;5.47;;;;;;;;;;5053749;28;20237;-17
2022/03/28 12:15:52;;;;;;;12.15;4.53;;;;;;;;;;5058225;28;20958;-17
2022/03/28 12:18:20;;;;;;;14.48;4.93;;;;;;;;;;5065921;28;20696;-17
2022/03/28 12:20:49;;;;;;;9.65;5.28;;;;;;;;;;5069132;28;20242;-17
2022/03/28 12:23:16;;;;;;;8.35;5.35;;;;;;;;;;5067905;28;20324;-17
2022/03/28 12:25:44;;;;;;;8.18;5.40;;;;;;;;;;5066127;28;20244;-17
2022/03/28 12:28:12;;;;;;;13.68;5.55;;;;;;;;;;5066934;28;20241;-17
2022/03/28 12:30:40;;;;;;;10.68;6.20;;;;;;;;;;5058391;28;21204;-17
2022/03/28 12:33:17;;;;;;;10.48;5.80;;;;;;;;;;5056940;28;20285;-17
2022/03/28 12:35:45;;;;;;;8.10;5.97;;;;;;;;;;5055106;28;20697;-17
2022/03/28 12:38:16;;;;;;;14.98;6.80;;;;;;;;;;5048212;28;20497;-17
2022/03/28 12:40:44;;;;;;;11.10;6.30;;;;;;;;;;5047139;28;20430;-17
2022/03/28 12:43:12;;;;;;;18.73;7.00;;;;;;;;;;5046843;28;20328;-17
2022/03/28 12:45:39;;;;;;;13.35;7.05;;;;;;;;;;5061812;28;20736;-17
2022/03/28 12:48:07;;;;;;;11.60;6.90;;;;;;;;;;5054745;28;20242;-17
2022/03/28 12:50:50;;;;;;;11.07;7.00;;;;;;;;;;5050890;28;20238;-17
2022/03/28 12:53:19;;;;;;;11.45;7.43;;;;;;;;;;5046742;28;20724;-17
2022/03/28 12:55:46;;;;;;;15.98;8.13;;;;;;;;;;5050633;28;20230;-17
2022/03/28 12:58:14;;;;;;;15.15;7.30;;;;;;;;;;5048914;28;20230;-17
2022/03/28 13:00:41;;;;;;;13.68;7.55;;;;;;;;;;5046928;28;20229;-17
2022/03/28 13:03:09;;;;;;;15.80;8.00;;;;;;;;;;5047861;28;20784;-17
2022/03/28 13:05:37;;;;;;;16.60;7.45;;;;;;;;;;5052125;28;20521;-17
2022/03/28 13:08:05;;;;;;;14.68;7.07;;;;;;;;;;5057879;28;20230;-18
2022/03/28 13:10:34;;;;;;;13.98;8.15;;;;;;;;;;5049120;28;20230;-16
2022/03/28 13:13:02;;;;;;;17.17;8.02;;;;;;;;;;5051045;28;20735;-18
2022/03/28 13:15:31;;;;;;;13.13;6.65;;;;;;;;;;5047770;28;20230;-17
2022/03/28 13:18:08;;;;;;;12.07;6.88;;;;;;;;;;5050504;28;20234;-17
2022/03/28 13:20:42;;;;;;;16.48;8.20;;;;;;;;;;5044919;28;20296;-17
2022/03/28 13:23:22;;;;;;;14.68;7.32;;;;;;;;;;5049156;28;20246;-17
2022/03/28 13:25:51;;;;;;;14.82;8.18;;;;;;;;;;5048131;28;20237;-17
2022/03/28 13:28:21;;;;;;;19.90;8.00;;;;;;;;;;5063759;28;21034;-17
2022/03/28 13:30:50;;;;;;;22.25;8.18;;;;;;;;;;5055017;28;20433;-16
2022/03/28 13:33:18;;;;;;;14.27;7.40;;;;;;;;;;5057082;28;20513;-17
2022/03/28 13:35:46;;;;;;;24.08;7.07;;;;;;;;;;5052383;28;20241;-17
2022/03/28 13:38:14;;;;;;;24.30;7.03;;;;;;;;;;5053122;28;20846;-17
2022/03/28 13:40:42;;;;;;;27.65;6.65;;;;;;;;;;5048564;28;20261;-17
2022/03/28 13:43:11;;;;;;;18.77;5.97;;;;;;;;;;5052962;28;20237;-17
2022/03/28 13:45:38;;;;;;;18.13;5.63;;;;;;;;;;5053174;28;20715;-17
2022/03/28 13:48:07;;;;;;;17.67;5.38;;;;;;;;;;5052459;28;20234;-17
2022/03/28 13:50:34;;;;;;;15.68;4.80;;;;;;;;;;5053235;28;20321;-17
2022/03/28 13:53:22;;;;;;;14.68;4.65;;;;;;;;;;5051994;28;20696;-17
2022/03/28 13:55:49;;;;;;;12.82;4.57;;;;;;;;;;5052921;28;20236;-17
2022/03/28 13:58:17;;;;;;;13.48;4.50;;;;;;;;;;5051871;28;20230;-17
2022/03/28 14:00:45;;;;;;;13.07;4.07;;;;;;;;;;5053470;28;20689;-17
2022/03/28 14:03:12;;;;;;;7.97;4.22;;;;;;;;;;5049383;28;20697;-17
2022/03/28 14:05:40;;;;;;;9.43;4.28;;;;;;;;;;5053819;28;20702;-17
2022/03/28 14:08:09;;;;;;;11.60;3.60;;;;;;;;;;5052340;28;20243;-17
2022/03/28 14:10:37;;;;;;;12.60;3.58;;;;;;;;;;5052543;28;20230;-17
2022/03/28 14:13:04;;;;;;;13.88;4.55;;;;;;;;;;5052689;28;20361;-17
2022/03/28 14:15:33;;;;;;;9.93;3.70;;;;;;;;;;5052586;28;20218;-17
2022/03/28 14:18:01;;;;;;;11.18;3.80;;;;;;;;;;5052448;28;20983;-17
2022/03/28 14:20:29;;;;;;;10.30;3.70;;;;;;;;;;5052110;28;20238;-17
2022/03/28 14:22:56;;;;;;;9.52;3.53;;;;;;;;;;5050975;28;20245;-17
2022/03/28 14:25:26;;;;;;;11.43;3.55;;;;;;;;;;5052543;28;20230;-17
2022/03/28 14:27:54;;;;;;;6.95;3.50;;;;;;;;;;5052407;28;20233;-17
2022/03/28 14:30:21;;;;;;;8.80;3.53;;;;;;;;;;5051800;28;20226;-17
2022/03/28 14:32:50;;;;;;;7.32;3.28;;;;;;;;;;5052133;28;20693;-17
2022/03/28 14:35:17;;;;;;;7.13;3.20;;;;;;;;;;5051126;28;20857;-17
2022/03/28 14:37:45;;;;;;;11.55;3.65;;;;;;;;;;5052395;28;20571;-17
2022/03/28 14:40:13;;;;;;;6.68;3.08;;;;;;;;;;5049105;28;21092;-17
2022/03/28 14:42:40;;;;;;;30.98;5.35;;;;;;;;;;5052369;28;20289;-17
2022/03/28 14:45:09;;;;;;;20.50;6.10;;;;;;;;;;5061586;28;21010;-17
2022/03/28 14:47:37;;;;;;;17.23;5.30;;;;;;;;;;5061799;28;20252;-17
2022/03/28 14:50:07;;;;;;;19.92;6.13;;;;;;;;;;5063236;28;20244;-17